Time;durP1;ratioP1;P1;durP2;ratioP2;P2;SDS_P1;SDS_P2;PMS_P1;PMS_P2;Temp;Humidity;BMP_temperature;BMP_pressure;BME280_temperature;BME280_humidity;BME280_pressure;Samples;Min_cycle;Max_cycle;Signal;HPM_P1;HPM_P2
2022/11/13 00:01:24;;;;;;;68.60;38.20;;;;;;;7.57;71.49;100564.73;103570;1295;107362;-70
2022/11/13 00:03:52;;;;;;;59.80;36.50;;;;;;;7.57;71.58;100564.55;103625;1295;97841;-68
2022/11/13 00:06:20;;;;;;;65.40;36.00;;;;;;;7.58;71.53;100567.86;103595;1294;97860;-69
2022/11/13 00:08:53;;;;;;;62.30;36.30;;;;;;;7.58;71.61;100569.43;103607;1288;111302;-69
2022/11/13 00:11:21;;;;;;;63.90;37.10;;;;;;;7.58;71.58;100563.96;103596;1289;95184;-68
2022/11/13 00:13:49;;;;;;;61.80;34.60;;;;;;;7.59;71.78;100558.99;103582;1295;107461;-69
2022/11/13 00:16:19;;;;;;;66.20;36.20;;;;;;;7.59;71.75;100562.52;103550;1294;96335;-69
2022/11/13 00:18:47;;;;;;;65.20;37.90;;;;;;;7.60;71.77;100558.59;103637;1288;97898;-70
2022/11/13 00:21:18;;;;;;;70.00;41.10;;;;;;;7.61;71.71;100561.75;103670;1299;110819;-70
2022/11/13 00:23:46;;;;;;;68.90;37.90;;;;;;;7.59;71.70;100562.16;103591;1291;97938;-70
2022/11/13 00:26:17;;;;;;;73.00;42.20;;;;;;;7.59;71.67;100565.16;103632;1288;107519;-71
2022/11/13 00:28:45;;;;;;;72.20;42.00;;;;;;;7.59;71.65;100563.94;103646;1296;97946;-70
2022/11/13 00:31:15;;;;;;;72.60;41.00;;;;;;;7.58;71.68;100566.07;103688;1299;97862;-70
2022/11/13 00:33:42;;;;;;;71.60;40.40;;;;;;;7.59;71.75;100566.94;103621;1296;110372;-71
2022/11/13 00:36:31;;;;;;;74.50;42.60;;;;;;;7.59;71.84;100557.57;103623;1291;97342;-70
2022/11/13 00:38:59;;;;;;;68.20;38.40;;;;;;;7.59;71.72;100559.89;103619;1297;107742;-68
2022/11/13 00:41:27;;;;;;;65.30;37.60;;;;;;;7.56;71.69;100564.56;103684;1299;95289;-69
2022/11/13 00:43:54;;;;;;;63.30;37.30;;;;;;;7.55;71.79;100558.98;103648;1288;97879;-71
2022/11/13 00:46:22;;;;;;;60.80;32.30;;;;;;;7.52;71.79;100557.85;103683;1294;111298;-70
2022/11/13 00:48:50;;;;;;;60.20;33.20;;;;;;;7.49;71.70;100554.27;103667;1294;95114;-69
2022/11/13 00:51:18;;;;;;;60.40;31.80;;;;;;;7.45;71.71;100556.84;103654;1292;107426;-69
2022/11/13 00:53:46;;;;;;;55.20;29.80;;;;;;;7.42;71.71;100554.13;103685;1289;97936;-69
2022/11/13 00:56:14;;;;;;;51.10;27.90;;;;;;;7.39;71.78;100557.58;103721;1294;97976;-68
2022/11/13 00:58:42;;;;;;;60.30;32.60;;;;;;;7.37;71.70;100555.55;103657;1282;111418;-68
2022/11/13 01:01:13;;;;;;;54.00;28.50;;;;;;;7.32;71.73;100547.61;103653;1295;97973;-69
2022/11/13 01:03:42;;;;;;;55.60;30.30;;;;;;;7.29;71.90;100543.11;103636;1291;108089;-68
2022/11/13 01:06:18;;;;;;;56.60;30.00;;;;;;;7.29;71.96;100544.35;103654;1288;95186;-68
2022/11/13 01:08:47;;;;;;;57.60;30.20;;;;;;;7.32;72.05;100540.04;103697;1288;96327;-68
2022/11/13 01:11:21;;;;;;;59.50;31.80;;;;;;;7.33;72.00;100537.38;103677;1298;111698;-70
2022/11/13 01:13:51;;;;;;;59.00;31.70;;;;;;;7.34;72.06;100535.55;103682;1295;98556;-70
2022/11/13 01:16:23;;;;;;;61.80;31.10;;;;;;;7.33;72.09;100536.48;103689;1295;107423;-70
2022/11/13 01:18:55;;;;;;;58.90;30.50;;;;;;;7.33;72.11;100535.05;103671;1291;98393;-69
2022/11/13 01:21:26;;;;;;;56.60;30.90;;;;;;;7.34;72.12;100533.96;103652;1299;98102;-69
2022/11/13 01:23:55;;;;;;;57.30;29.40;;;;;;;7.33;72.06;100535.02;103635;1295;110343;-70
2022/11/13 01:26:26;;;;;;;54.00;28.50;;;;;;;7.33;72.12;100535.94;103686;1295;97949;-69
2022/11/13 01:28:56;;;;;;;52.90;28.80;;;;;;;7.32;72.07;100538.09;103661;1290;107496;-69
2022/11/13 01:31:27;;;;;;;51.50;27.00;;;;;;;7.32;72.21;100530.86;103654;1299;97891;-70
2022/11/13 01:33:57;;;;;;;52.00;27.40;;;;;;;7.31;72.20;100529.28;103640;1299;98059;-69
2022/11/13 01:36:27;;;;;;;58.30;29.80;;;;;;;7.31;72.27;100524.36;103647;1295;111403;-69
2022/11/13 01:38:56;;;;;;;57.50;28.20;;;;;;;7.31;72.12;100526.66;103699;1295;97916;-69
2022/11/13 01:41:29;;;;;;;54.80;29.50;;;;;;;7.27;72.15;100524.13;103630;1294;106884;-69
2022/11/13 01:43:58;;;;;;;56.80;29.50;;;;;;;7.26;72.22;100522.75;103662;1295;97870;-69
2022/11/13 01:46:35;;;;;;;59.80;30.30;;;;;;;7.28;72.32;100522.52;103725;1294;97834;-69
2022/11/13 01:49:09;;;;;;;59.90;29.80;;;;;;;7.29;72.29;100517.90;103598;1296;111740;-70
2022/11/13 01:51:58;;;;;;;61.50;32.30;;;;;;;7.27;72.08;100519.38;103628;1288;95241;-69
2022/11/13 01:54:52;;;;;;;77.00;39.30;;;;;;;7.23;72.28;100523.05;103619;1288;107439;-70
2022/11/13 01:57:20;;;;;;;73.90;39.60;;;;;;;7.20;72.35;100521.02;103687;1290;97902;-70
2022/11/13 01:59:55;;;;;;;81.10;42.70;;;;;;;7.20;72.33;100520.32;103730;1289;96166;-70
2022/11/13 02:02:23;;;;;;;67.30;36.70;;;;;;;7.21;72.41;100521.86;103627;1299;111459;-69
2022/11/13 02:04:52;;;;;;;65.50;34.70;;;;;;;7.20;72.27;100517.50;103620;1295;98371;-70
2022/11/13 02:07:22;;;;;;;68.80;34.60;;;;;;;7.19;72.43;100519.14;103626;1289;106755;-69
2022/11/13 02:09:54;;;;;;;65.40;31.70;;;;;;;7.17;72.13;100512.84;103637;1295;97951;-69
2022/11/13 02:12:35;;;;;;;57.70;29.20;;;;;;;7.11;72.23;100513.59;103615;1295;98518;-69
2022/11/13 02:15:06;;;;;;;64.60;32.00;;;;;;;7.06;72.29;100512.34;103611;1295;111746;-69
2022/11/13 02:18:01;;;;;;;58.20;31.40;;;;;;;7.06;72.52;100512.54;103652;1297;97925;-69
2022/11/13 02:20:53;;;;;;;60.80;31.40;;;;;;;7.07;72.59;100513.54;103658;1295;107924;-68
2022/11/13 02:23:44;;;;;;;58.80;32.00;;;;;;;7.10;72.66;100510.98;103686;1295;95180;-69
2022/11/13 02:26:12;;;;;;;55.80;30.00;;;;;;;7.12;72.69;100507.19;103408;1299;97950;-69
2022/11/13 02:28:40;;;;;;;58.80;29.60;;;;;;;7.13;72.63;100506.27;103596;1295;111779;-69
2022/11/13 02:31:11;;;;;;;54.50;29.20;;;;;;;7.14;72.67;100508.36;103593;1290;96232;-66
2022/11/13 02:33:39;;;;;;;58.70;31.20;;;;;;;7.14;72.61;100505.17;103569;1298;108738;-68
2022/11/13 02:36:09;;;;;;;57.00;31.10;;;;;;;7.12;72.57;100505.61;103634;1295;98518;-69
2022/11/13 02:38:40;;;;;;;59.20;30.00;;;;;;;7.11;72.70;100507.05;103682;1296;97856;-69
2022/11/13 02:41:08;;;;;;;60.20;31.90;;;;;;;7.13;72.69;100507.50;103600;1289;112834;-68
2022/11/13 02:43:36;;;;;;;61.60;31.10;;;;;;;7.15;72.80;100507.61;103512;1295;97971;-70
2022/11/13 02:46:04;;;;;;;53.40;30.10;;;;;;;7.15;72.85;100506.56;103589;1295;108002;-70
2022/11/13 02:48:32;;;;;;;59.50;29.20;;;;;;;7.14;72.72;100510.48;103600;1292;97866;-69
2022/11/13 02:51:00;;;;;;;55.80;29.20;;;;;;;7.14;72.83;100510.46;103646;1289;97883;-68
2022/11/13 02:53:28;;;;;;;57.70;29.60;;;;;;;7.14;72.79;100509.92;103620;1300;111739;-68
2022/11/13 02:55:56;;;;;;;53.40;27.90;;;;;;;7.16;72.81;100505.48;103595;1295;97972;-68
2022/11/13 02:58:24;;;;;;;57.80;28.70;;;;;;;7.17;72.89;100508.60;103628;1291;107625;-69
2022/11/13 03:00:52;;;;;;;54.00;28.80;;;;;;;7.19;72.75;100514.36;103571;1290;97944;-69
2022/11/13 03:03:20;;;;;;;57.10;29.00;;;;;;;7.19;72.87;100511.73;103580;1295;97862;-68
2022/11/13 03:06:08;;;;;;;54.40;27.90;;;;;;;7.20;72.93;100514.31;103566;1295;111303;-69
2022/11/13 03:08:36;;;;;;;54.50;29.70;;;;;;;7.21;72.87;100514.14;103629;1295;97958;-69
2022/11/13 03:11:10;;;;;;;55.30;29.40;;;;;;;7.21;72.91;100514.11;103611;1295;108537;-68
2022/11/13 03:13:38;;;;;;;;;;;;;;;7.22;73.01;100510.73;103590;1308;97926;-71
2022/11/13 03:16:12;;;;;;;54.90;28.00;;;;;;;7.22;73.11;100514.09;103659;1299;97865;-69
2022/11/13 03:18:41;;;;;;;;;;;;;;;7.24;73.13;100521.25;103644;1296;111328;-69
2022/11/13 03:21:13;;;;;;;50.10;27.60;;;;;;;7.24;73.23;100518.59;103600;1294;95098;-69
2022/11/13 03:23:46;;;;;;;57.40;29.80;;;;;;;7.26;73.12;100519.23;103619;1295;107340;-68
2022/11/13 03:26:16;;;;;;;52.90;26.80;;;;;;;7.27;73.01;100516.19;103652;1295;98424;-70
2022/11/13 03:28:45;;;;;;;54.10;28.70;;;;;;;7.27;72.96;100515.67;103635;1288;97939;-70
2022/11/13 03:31:14;;;;;;;52.40;26.70;;;;;;;7.27;73.07;100517.77;103653;1302;111298;-69
2022/11/13 03:33:43;;;;;;;54.40;28.70;;;;;;;7.30;73.13;100517.34;103710;1295;96305;-68
2022/11/13 03:36:14;;;;;;;52.50;27.70;;;;;;;7.31;73.11;100517.12;103593;1294;108071;-68
2022/11/13 03:38:41;;;;;;;52.30;27.20;;;;;;;7.32;73.13;100517.96;103599;1292;95241;-69
2022/11/13 03:41:13;;;;;;;54.80;28.80;;;;;;;7.34;73.30;100512.94;103443;1292;97846;-68
2022/11/13 03:43:42;;;;;;;41.10;20.90;;;;;;;7.35;73.14;100511.30;103638;1295;111302;-69
2022/11/13 03:46:11;;;;;;;54.50;28.40;;;;;;;7.37;73.23;100507.72;103691;1289;97890;-68
2022/11/13 03:48:41;;;;;;;69.40;29.20;;;;;;;7.39;73.19;100506.58;103664;1292;107266;-69
2022/11/13 03:51:08;;;;;;;53.80;27.10;;;;;;;7.38;73.19;100506.61;103624;1299;98564;-69
2022/11/13 03:53:36;;;;;;;52.90;26.60;;;;;;;7.38;73.22;100511.04;103600;1299;97959;-69
2022/11/13 03:56:04;;;;;;;52.40;28.20;;;;;;;7.39;73.29;100511.89;103592;1295;110731;-69
2022/11/13 03:58:32;;;;;;;57.40;29.30;;;;;;;7.40;73.21;100513.08;103673;1295;97887;-67
2022/11/13 04:01:06;;;;;;;53.00;29.20;;;;;;;7.41;73.25;100515.69;105365;1296;107512;-69
2022/11/13 04:03:34;;;;;;;54.40;28.60;;;;;;;7.42;73.27;100511.60;105411;1289;97550;-69
2022/11/13 04:06:02;;;;;;;58.80;31.00;;;;;;;7.41;73.25;100510.75;105392;1295;95637;-69
2022/11/13 04:08:30;;;;;;;57.20;31.00;;;;;;;7.41;73.21;100506.67;104292;1295;111199;-69
2022/11/13 04:11:10;;;;;;;58.00;29.40;;;;;;;7.42;73.15;100506.31;103771;1298;97886;-68
2022/11/13 04:13:38;;;;;;;51.30;28.60;;;;;;;7.41;73.21;100503.70;103768;1294;107347;-68
2022/11/13 04:16:08;;;;;;;54.50;30.30;;;;;;;7.38;73.19;100505.04;103435;1298;97954;-68
2022/11/13 04:18:36;;;;;;;56.70;29.50;;;;;;;7.34;73.14;100502.89;103650;1298;95071;-68
2022/11/13 04:21:05;;;;;;;57.30;29.50;;;;;;;7.31;73.16;100500.52;103637;1295;111708;-68
2022/11/13 04:23:33;;;;;;;55.90;28.00;;;;;;;7.33;73.34;100494.83;103569;1289;97904;-68
2022/11/13 04:26:01;;;;;;;54.40;29.50;;;;;;;7.28;73.29;100494.10;103671;1294;108110;-69
2022/11/13 04:28:29;;;;;;;56.10;30.20;;;;;;;7.28;73.27;100494.30;103711;1289;98971;-70
2022/11/13 04:30:59;;;;;;;62.40;33.20;;;;;;;7.29;73.32;100494.43;103544;1298;97086;-69
2022/11/13 04:33:27;;;;;;;62.20;32.10;;;;;;;7.28;73.44;100494.27;103602;1295;111470;-72
2022/11/13 04:35:55;;;;;;;59.70;31.00;;;;;;;7.27;73.21;100493.09;103657;1298;97854;-69
2022/11/13 04:38:22;;;;;;;61.90;32.80;;;;;;;7.20;73.33;100494.04;103642;1290;107501;-68
2022/11/13 04:42:47;;;;;;;62.00;32.30;;;;;;;7.21;73.46;100493.48;103692;1283;98116;-68
2022/11/13 04:43:38;;;;;;;63.10;32.40;;;;;;;7.22;73.51;100488.67;103608;1298;148956;-67
2022/11/13 04:46:07;;;;;;;66.20;32.60;;;;;;;7.21;73.48;100487.81;103692;1288;110795;-69
2022/11/13 04:48:35;;;;;;;62.90;33.00;;;;;;;7.18;73.37;100488.80;103722;1289;97869;-69
2022/11/13 04:51:06;;;;;;;65.40;34.90;;;;;;;7.19;73.59;100487.90;103655;1294;108085;-68
2022/11/13 04:53:34;;;;;;;67.80;34.50;;;;;;;7.19;73.49;100491.79;103571;1292;97928;-69
2022/11/13 04:56:03;;;;;;;72.30;37.20;;;;;;;7.18;73.52;100496.41;103670;1291;97878;-69
2022/11/13 04:58:31;;;;;;;63.80;33.10;;;;;;;7.17;73.54;100493.24;103690;1296;110183;-68
2022/11/13 05:00:59;;;;;;;65.90;32.50;;;;;;;7.17;73.51;100492.02;103724;1294;97872;-68
2022/11/13 05:03:27;;;;;;;66.90;35.90;;;;;;;7.16;73.45;100491.70;103655;1299;108244;-68
2022/11/13 05:06:07;;;;;;;66.00;34.00;;;;;;;7.15;73.54;100487.33;103681;1294;95435;-68
2022/11/13 05:08:37;;;;;;;64.70;32.40;;;;;;;7.13;73.59;100487.21;103724;1299;98073;-68
2022/11/13 05:11:05;;;;;;;65.10;34.30;;;;;;;7.15;73.59;100490.33;103637;1297;110728;-68
2022/11/13 05:13:35;;;;;;;63.20;33.90;;;;;;;7.17;73.64;100488.16;103521;1299;97949;-68
2022/11/13 05:16:11;;;;;;;56.30;29.50;;;;;;;7.19;73.79;100490.00;103647;1288;106602;-69
2022/11/13 05:18:40;;;;;;;66.00;33.50;;;;;;;7.22;73.78;100489.20;103641;1296;97940;-68
2022/11/13 05:21:10;;;;;;;61.20;32.70;;;;;;;7.24;73.83;100492.65;103658;1288;97949;-70
2022/11/13 05:23:38;;;;;;;59.30;31.00;;;;;;;7.26;73.76;100496.83;103526;1292;111324;-68
2022/11/13 05:26:12;;;;;;;59.40;32.10;;;;;;;7.27;73.79;100496.59;103665;1298;97932;-70
2022/11/13 05:28:39;;;;;;;59.90;30.20;;;;;;;7.30;73.75;100500.21;103652;1291;105609;-69
2022/11/13 05:31:13;;;;;;;57.90;30.00;;;;;;;7.31;73.75;100501.23;103627;1295;97957;-69
2022/11/13 05:33:43;;;;;;;;;;;;;;;7.32;73.72;100499.45;103715;1291;97863;-69
2022/11/13 05:36:15;;;;;;;54.20;28.50;;;;;;;7.29;73.80;100498.64;103650;1294;111237;-69
2022/11/13 05:38:45;;;;;;;52.00;27.00;;;;;;;7.28;73.76;100498.67;103705;1296;98460;-69
2022/11/13 05:41:20;;;;;;;55.90;28.70;;;;;;;7.29;73.91;100497.23;103524;1291;108111;-69
2022/11/13 05:43:50;;;;;;;57.30;29.40;;;;;;;7.30;73.90;100501.10;103711;1294;97892;-69
2022/11/13 05:46:30;;;;;;;54.70;27.60;;;;;;;7.31;73.84;100501.58;103714;1289;97868;-68
2022/11/13 05:49:01;;;;;;;55.70;27.80;;;;;;;7.33;73.85;100502.60;103734;1295;110482;-68
2022/11/13 05:51:33;;;;;;;58.20;30.00;;;;;;;7.34;73.84;100504.84;103712;1295;97979;-69
2022/11/13 05:54:02;;;;;;;57.60;30.20;;;;;;;7.33;73.85;100509.64;103634;1295;107475;-70
2022/11/13 05:56:34;;;;;;;58.40;30.60;;;;;;;7.32;73.82;100509.69;103641;1294;95279;-70
2022/11/13 05:59:05;;;;;;;52.10;28.70;;;;;;;7.33;73.90;100505.23;103618;1292;97895;-70
2022/11/13 06:01:37;;;;;;;58.70;30.30;;;;;;;7.36;73.86;100504.59;103656;1289;111038;-68
2022/11/13 06:04:08;;;;;;;61.00;30.70;;;;;;;7.36;73.84;100508.45;103678;1296;97776;-70
2022/11/13 06:06:37;;;;;;;58.20;31.60;;;;;;;7.38;73.91;100510.32;103707;1295;108147;-69
2022/11/13 06:09:07;;;;;;;59.00;30.70;;;;;;;7.41;73.99;100510.02;103653;1296;98027;-68
2022/11/13 06:11:35;;;;;;;58.30;29.80;;;;;;;7.43;74.06;100509.08;103659;1291;95136;-69
2022/11/13 06:14:03;;;;;;;54.40;28.00;;;;;;;7.46;74.01;100505.78;103703;1293;111679;-68
2022/11/13 06:16:37;;;;;;;58.70;28.40;;;;;;;7.48;74.07;100507.32;103692;1288;97863;-68
2022/11/13 06:19:09;;;;;;;57.40;30.30;;;;;;;7.51;74.10;100510.77;103670;1292;107071;-67
2022/11/13 06:21:40;;;;;;;59.30;29.80;;;;;;;7.52;74.10;100506.33;103652;1292;97971;-69
2022/11/13 06:24:12;;;;;;;56.30;30.30;;;;;;;7.54;74.19;100499.37;103455;1299;97941;-69
2022/11/13 06:26:42;;;;;;;58.10;29.80;;;;;;;7.55;74.13;100501.77;103654;1299;110213;-68
2022/11/13 06:29:12;;;;;;;56.30;28.90;;;;;;;7.53;73.97;100503.43;103655;1295;95161;-69
2022/11/13 06:31:39;;;;;;;54.80;28.20;;;;;;;7.54;74.09;100501.63;103611;1290;108082;-69
2022/11/13 06:34:09;;;;;;;58.00;29.90;;;;;;;7.53;74.00;100503.61;103602;1297;98065;-68
2022/11/13 06:36:37;;;;;;;55.50;28.10;;;;;;;7.54;74.13;100506.95;103599;1288;97875;-69
2022/11/13 06:39:08;;;;;;;59.70;30.20;;;;;;;7.55;74.12;100507.77;103648;1292;111683;-68
2022/11/13 06:41:38;;;;;;;56.80;29.60;;;;;;;7.56;74.22;100509.30;103536;1288;98505;-69
2022/11/13 06:44:06;;;;;;;59.10;28.90;;;;;;;7.57;74.23;100512.64;103553;1296;107829;-69
2022/11/13 06:46:34;;;;;;;59.30;30.20;;;;;;;7.57;74.22;100511.59;103646;1290;95103;-69
2022/11/13 06:49:02;;;;;;;55.70;29.40;;;;;;;7.58;74.20;100512.95;103666;1299;97947;-69
2022/11/13 06:51:32;;;;;;;53.20;28.70;;;;;;;7.60;74.22;100509.52;103537;1288;111094;-68
2022/11/13 06:54:00;;;;;;;58.20;29.30;;;;;;;7.63;74.35;100514.00;103635;1298;97824;-69
2022/11/13 06:56:28;;;;;;;51.70;28.40;;;;;;;7.65;74.29;100511.14;103626;1295;108097;-69
2022/11/13 06:58:56;;;;;;;57.70;29.00;;;;;;;7.66;74.23;100512.14;103625;1291;95179;-68
2022/11/13 07:01:26;;;;;;;57.40;28.70;;;;;;;7.67;74.28;100511.58;103597;1294;97935;-70
2022/11/13 07:03:55;;;;;;;57.30;29.60;;;;;;;7.68;74.35;100507.80;103674;1298;111793;-67
2022/11/13 07:06:25;;;;;;;57.70;27.60;;;;;;;7.69;74.25;100513.07;103697;1289;97966;-68
2022/11/13 07:08:54;;;;;;;59.30;27.10;;;;;;;7.70;74.28;100515.17;103689;1295;107304;-67
2022/11/13 07:11:24;;;;;;;59.40;28.70;;;;;;;7.71;74.38;100520.42;103660;1299;97741;-66
2022/11/13 07:13:51;;;;;;;58.10;29.10;;;;;;;7.73;74.46;100516.13;103715;1296;97978;-68
2022/11/13 07:16:19;;;;;;;55.90;28.50;;;;;;;7.74;74.37;100517.13;103647;1295;111367;-68
2022/11/13 07:18:52;;;;;;;57.60;30.60;;;;;;;7.77;74.47;100515.60;103707;1288;96352;-67
2022/11/13 07:21:22;;;;;;;55.50;28.00;;;;;;;7.78;74.35;100507.98;103537;1291;107421;-69
2022/11/13 07:23:50;;;;;;;62.20;30.40;;;;;;;7.79;74.50;100507.92;103722;1292;97976;-68
2022/11/13 07:26:21;;;;;;;51.80;27.50;;;;;;;7.81;74.49;100505.60;103725;1299;97863;-69
2022/11/13 07:28:49;;;;;;;56.50;27.40;;;;;;;7.82;74.49;100506.59;103611;1292;110943;-70
2022/11/13 07:31:18;;;;;;;54.80;26.90;;;;;;;7.83;74.38;100502.48;103590;1291;97997;-70
2022/11/13 07:33:50;;;;;;;55.30;28.10;;;;;;;7.85;74.45;100505.27;103640;1292;108038;-69
2022/11/13 07:36:18;;;;;;;54.00;26.90;;;;;;;7.86;74.52;100500.45;103601;1295;95558;-70
2022/11/13 07:38:46;;;;;;;52.00;27.00;;;;;;;7.87;74.57;100506.59;103634;1288;98026;-69
2022/11/13 07:41:14;;;;;;;52.00;27.40;;;;;;;7.88;74.53;100506.19;103644;1288;110974;-69
2022/11/13 07:43:41;;;;;;;53.80;27.20;;;;;;;7.89;74.52;100502.98;103552;1296;97690;-70
2022/11/13 07:46:10;;;;;;;56.50;27.50;;;;;;;7.90;74.55;100503.09;103578;1294;106935;-70
2022/11/13 07:48:38;;;;;;;54.00;27.40;;;;;;;7.92;74.59;100497.75;103673;1289;97017;-70
2022/11/13 07:51:06;;;;;;;58.60;27.90;;;;;;;7.94;74.62;100497.69;103752;1276;97825;-71
2022/11/13 07:53:34;;;;;;;54.20;27.20;;;;;;;7.95;74.40;100500.30;103511;1291;109668;-68
2022/11/13 07:56:05;;;;;;;52.90;27.00;;;;;;;7.95;74.60;100503.25;103603;1290;97943;-69
2022/11/13 07:58:33;;;;;;;54.90;26.50;;;;;;;7.96;74.61;100502.88;103692;1297;108545;-69
2022/11/13 08:01:05;;;;;;;46.90;25.30;;;;;;;7.98;74.62;100504.58;103593;1285;97893;-69
2022/11/13 08:03:34;;;;;;;51.60;26.50;;;;;;;7.99;74.57;100505.60;103602;1296;99970;-69
2022/11/13 08:06:08;;;;;;;53.90;25.60;;;;;;;7.99;74.79;100505.56;103495;1288;112729;-71
2022/11/13 08:08:35;;;;;;;56.40;26.80;;;;;;;8.01;74.66;100509.91;103617;1295;98037;-72
2022/11/13 08:11:07;;;;;;;53.40;26.60;;;;;;;8.03;74.67;100506.50;103648;1295;107540;-69
2022/11/13 08:13:37;;;;;;;50.90;26.10;;;;;;;8.03;74.61;100511.45;103653;1298;97896;-70
2022/11/13 08:16:07;;;;;;;52.00;26.60;;;;;;;8.00;74.65;100511.56;103655;1299;98070;-70
2022/11/13 08:18:35;;;;;;;50.00;25.00;;;;;;;8.01;74.71;100514.52;103620;1294;111130;-70
2022/11/13 08:21:05;;;;;;;52.90;26.90;;;;;;;8.02;74.65;100511.64;103673;1298;95501;-69
2022/11/13 08:23:42;;;;;;;52.80;26.50;;;;;;;8.00;74.58;100514.91;103568;1291;108049;-68
2022/11/13 08:26:10;;;;;;;52.70;26.20;;;;;;;8.01;74.65;100513.11;103681;1295;98424;-70
2022/11/13 08:28:39;;;;;;;48.20;24.30;;;;;;;8.02;74.71;100512.19;103609;1289;95833;-69
2022/11/13 08:31:13;;;;;;;47.10;23.50;;;;;;;8.03;74.84;100513.22;103646;1295;111106;-69
2022/11/13 08:33:43;;;;;;;51.80;25.70;;;;;;;8.03;74.62;100515.84;103707;1289;97932;-68
2022/11/13 08:36:11;;;;;;;51.30;25.80;;;;;;;8.04;74.81;100519.16;103576;1289;107857;-69
2022/11/13 08:38:39;;;;;;;53.40;26.10;;;;;;;8.06;74.81;100517.00;103641;1288;98154;-69
2022/11/13 08:41:06;;;;;;;50.00;25.60;;;;;;;8.06;74.86;100518.02;103727;1282;97856;-70
2022/11/13 08:43:39;;;;;;;51.80;25.50;;;;;;;8.07;74.75;100516.76;103603;1296;112177;-68
2022/11/13 08:46:07;;;;;;;53.20;25.70;;;;;;;8.04;74.75;100519.34;103657;1292;97679;-68
2022/11/13 08:48:36;;;;;;;55.10;27.70;;;;;;;8.03;74.70;100520.79;103810;1289;107917;-68
2022/11/13 08:51:05;;;;;;;49.80;25.10;;;;;;;8.05;74.84;100525.31;103711;1298;98049;-69
2022/11/13 08:53:33;;;;;;;52.20;25.80;;;;;;;8.05;74.84;100524.95;103611;1291;99254;-69
2022/11/13 08:56:01;;;;;;;58.30;27.40;;;;;;;8.05;74.81;100524.06;103668;1289;112732;-69
2022/11/13 08:58:29;;;;;;;55.60;27.70;;;;;;;8.06;74.97;100519.27;103426;1288;99062;-69
2022/11/13 09:01:03;;;;;;;58.30;28.30;;;;;;;8.09;74.97;100521.13;103528;1289;108173;-69
2022/11/13 09:03:31;;;;;;;53.30;26.10;;;;;;;8.11;74.94;100517.85;103576;1289;98249;-68
2022/11/13 09:06:05;;;;;;;50.70;26.40;;;;;;;8.11;74.76;100520.14;103690;1298;97809;-70
2022/11/13 09:08:35;;;;;;;52.60;27.20;;;;;;;8.07;74.79;100517.67;103679;1288;110932;-70
2022/11/13 09:11:05;;;;;;;50.90;26.90;;;;;;;8.08;74.75;100517.64;103677;1290;97007;-69
2022/11/13 09:13:35;;;;;;;54.00;27.80;;;;;;;8.09;74.82;100515.98;103553;1291;108978;-68
2022/11/13 09:16:11;;;;;;;54.10;27.10;;;;;;;8.10;74.86;100515.05;103539;1290;97973;-68
2022/11/13 09:18:39;;;;;;;52.30;27.10;;;;;;;8.11;74.85;100517.84;103653;1288;97861;-69
2022/11/13 09:21:07;;;;;;;52.30;26.10;;;;;;;8.13;74.94;100516.55;103602;1281;111457;-68
2022/11/13 09:23:37;;;;;;;49.60;23.90;;;;;;;8.12;74.78;100516.73;103646;1292;97972;-70
2022/11/13 09:26:05;;;;;;;49.50;26.20;;;;;;;8.12;74.84;100510.94;103421;1292;107007;-69
2022/11/13 09:28:33;;;;;;;49.10;25.30;;;;;;;8.13;74.96;100508.58;103455;1291;98971;-69
2022/11/13 09:31:06;;;;;;;52.00;24.60;;;;;;;8.17;74.91;100506.98;103628;1283;97953;-68
2022/11/13 09:33:35;;;;;;;53.30;26.30;;;;;;;8.21;75.03;100509.13;103580;1288;111824;-69
2022/11/13 09:36:10;;;;;;;52.30;25.20;;;;;;;8.24;75.07;100511.31;103445;1291;97847;-68
2022/11/13 09:38:40;;;;;;;48.70;25.20;;;;;;;8.27;75.09;100510.16;103583;1288;107164;-69
2022/11/13 09:41:16;;;;;;;48.10;25.10;;;;;;;8.30;75.14;100507.93;103538;1281;97843;-69
2022/11/13 09:43:52;;;;;;;48.80;24.50;;;;;;;8.28;74.96;100504.99;103580;1289;97857;-71
2022/11/13 09:46:40;;;;;;;50.60;24.50;;;;;;;8.27;75.00;100502.57;103553;1288;111857;-69
2022/11/13 09:49:08;;;;;;;55.40;25.80;;;;;;;8.29;75.06;100502.84;103587;1289;97884;-70
2022/11/13 09:51:39;;;;;;;52.10;25.70;;;;;;;8.31;75.14;100499.20;103521;1295;107508;-69
2022/11/13 09:54:13;;;;;;;50.70;26.00;;;;;;;8.34;75.11;100492.71;103566;1269;95266;-74
2022/11/13 09:56:45;;;;;;;;;;;;;;;8.38;75.16;100492.93;103578;1296;97916;-69
2022/11/13 09:59:35;;;;;;;51.30;27.00;;;;;;;8.38;75.17;100493.27;103573;1289;111856;-70
2022/11/13 10:02:06;;;;;;;53.20;27.10;;;;;;;8.41;75.11;100491.37;103644;1299;97946;-68
2022/11/13 10:04:58;;;;;;;47.70;24.50;;;;;;;8.44;75.23;100482.07;103628;1285;108148;-69
2022/11/13 10:07:45;;;;;;;52.10;27.00;;;;;;;8.46;75.21;100478.45;103642;1290;97760;-70
2022/11/13 10:10:44;;;;;;;55.90;28.80;;;;;;;8.48;75.13;100476.45;103565;1288;95133;-70
2022/11/13 10:13:32;;;;;;;55.80;27.20;;;;;;;8.49;75.07;100469.17;103632;1296;111752;-69
2022/11/13 10:16:33;;;;;;;53.90;28.20;;;;;;;8.47;75.01;100464.98;103640;1298;97842;-70
2022/11/13 10:19:39;;;;;;;55.10;26.80;;;;;;;8.44;75.04;100465.80;103569;1289;107182;-71
2022/11/13 10:22:51;;;;;;;54.30;28.00;;;;;;;8.44;75.10;100461.37;103643;1282;95233;-69
2022/11/13 10:25:27;;;;;;;53.40;28.00;;;;;;;8.46;75.07;100461.49;103657;1289;97872;-73
2022/11/13 10:28:09;;;;;;;52.10;27.00;;;;;;;8.47;75.14;100459.33;103673;1296;111105;-69
2022/11/13 10:30:58;;;;;;;51.10;26.80;;;;;;;8.47;75.04;100458.42;103615;1288;96252;-71
2022/11/13 10:33:25;;;;;;;54.80;27.90;;;;;;;8.49;75.08;100455.74;103611;1282;106430;-70
2022/11/13 10:36:13;;;;;;;55.20;28.10;;;;;;;8.49;75.04;100453.61;103584;1289;97810;-71
2022/11/13 10:38:49;;;;;;;51.00;27.50;;;;;;;8.49;75.09;100455.55;103625;1289;97851;-71
2022/11/13 10:41:21;;;;;;;57.70;28.60;;;;;;;8.50;75.17;100454.98;103565;1289;111396;-71
2022/11/13 10:43:58;;;;;;;56.20;28.50;;;;;;;8.54;75.16;100450.27;103647;1289;95208;-72
2022/11/13 10:46:29;;;;;;;55.20;28.90;;;;;;;8.57;75.16;100445.86;103672;1293;106686;-70
2022/11/13 10:49:29;;;;;;;59.10;29.00;;;;;;;8.60;75.17;100442.70;103614;1291;97869;-71
2022/11/13 10:52:01;;;;;;;55.10;27.50;;;;;;;8.65;75.18;100440.02;103524;1291;97845;-72
2022/11/13 10:54:32;;;;;;;56.80;27.60;;;;;;;8.68;75.22;100438.83;103648;1282;110801;-73
2022/11/13 10:57:19;;;;;;;53.60;29.40;;;;;;;8.72;75.08;100440.31;103659;1291;97951;-72
2022/11/13 10:59:47;;;;;;;56.90;27.60;;;;;;;8.75;75.14;100437.32;103511;1288;108108;-70
2022/11/13 11:02:23;;;;;;;54.70;28.10;;;;;;;8.77;75.08;100431.92;103595;1289;97873;-71
2022/11/13 11:05:23;;;;;;;56.70;29.60;;;;;;;8.79;75.16;100432.88;103630;1282;97869;-71
2022/11/13 11:07:55;;;;;;;52.40;27.10;;;;;;;8.81;75.20;100443.77;103507;1299;110944;-69
2022/11/13 11:10:33;;;;;;;51.50;26.40;;;;;;;8.80;74.94;100445.77;103588;1288;96248;-71
2022/11/13 11:13:10;;;;;;;57.40;27.90;;;;;;;8.75;74.96;100445.80;103538;1289;108133;-70
2022/11/13 11:15:47;;;;;;;53.50;29.30;;;;;;;8.70;75.03;100444.59;103484;1291;98457;-69
2022/11/13 11:18:31;;;;;;;55.50;29.30;;;;;;;8.69;75.01;100440.41;103613;1288;97879;-70
2022/11/13 11:21:06;;;;;;;51.90;28.30;;;;;;;8.71;75.04;100438.37;103613;1292;111164;-70
2022/11/13 11:23:34;;;;;;;52.40;27.20;;;;;;;8.71;75.01;100436.98;103616;1295;95137;-71
2022/11/13 11:26:16;;;;;;;59.40;30.70;;;;;;;8.72;74.99;100436.23;103631;1291;109543;-70
2022/11/13 11:28:51;;;;;;;57.00;31.90;;;;;;;8.73;75.16;100440.60;103460;1292;95260;-73